Time;durP1;ratioP1;P1;durP2;ratioP2;P2;SDS_P1;SDS_P2;PMS_P1;PMS_P2;Temp;Humidity;BMP_temperature;BMP_pressure;BME280_temperature;BME280_humidity;BME280_pressure;Samples;Min_cycle;Max_cycle;Signal;HPM_P1;HPM_P2
2022/02/20 00:00:14;;;;;;;;;;;;;;;;;;1007707;29;1055;-46
2022/02/20 00:00:44;;;;;;;;;;;;;;;;;;1007987;29;881;-45
2022/02/20 00:01:15;;;;;;;;;;;;;;;;;;1007813;29;1005;-45
2022/02/20 00:01:46;;;;;;;;;;;;;;;;;;1007856;29;1052;-45
2022/02/20 00:02:17;;;;;;;;;;;;;;;;;;1007805;29;947;-45
2022/02/20 00:02:48;;;;;;;;;;;;;;;;;;1007886;29;877;-45
2022/02/20 00:03:18;;;;;;;;;;;;;;;;;;1007907;29;904;-44
2022/02/20 00:03:49;;;;;;;;;;;;;;;;;;1007844;29;1167;-45
2022/02/20 00:04:19;;;;;;;;;;;;;;;;;;1007703;29;980;-45
2022/02/20 00:04:49;;;;;;;;;;;;;;;;;;1007911;29;845;-45
2022/02/20 00:05:20;;;;;;;;;;;;;;;;;;1007920;29;939;-45
2022/02/20 00:05:50;;;;;;;;;;;;;;;;;;1007737;29;916;-45
2022/02/20 00:06:21;;;;;;;;;;;;;;;;;;1007968;29;1024;-46
2022/02/20 00:06:52;;;;;;;;;;;;;;;;;;1007440;29;972;-46
2022/02/20 00:07:22;;;;;;;;;;;;;;;;;;1007996;29;779;-45
2022/02/20 00:07:53;;;;;;;;;;;;;;;;;;1007769;29;855;-46
2022/02/20 00:08:23;;;;;;;;;;;;;;;;;;1007740;29;844;-46
2022/02/20 00:08:53;;;;;;;;;;;;;;;;;;1007783;29;1067;-46
2022/02/20 00:09:24;;;;;;;;;;;;;;;;;;1007667;29;959;-45
2022/02/20 00:09:54;;;;;;;;;;;;;;;;;;1007869;29;980;-45
2022/02/20 00:10:24;;;;;;;;;;;;;;;;;;1007779;29;966;-45
2022/02/20 00:10:55;;;;;;;;;;;;;;;;;;1007779;29;828;-45
2022/02/20 00:11:26;;;;;;;;;;;;;;;;;;1008011;29;1637;-45
2022/02/20 00:11:57;;;;;;;;;;;;;;;;;;1007725;29;828;-45
2022/02/20 00:12:27;;;;;;;;;;;;;;;;;;1007924;29;966;-45
2022/02/20 00:12:59;;;;;;;;;;;;;;;;;;1007638;29;939;-45
2022/02/20 00:13:29;;;;;;;;;;;;;;;;;;1007815;29;927;-45
2022/02/20 00:13:59;;;;;;;;;;;;;;;;;;1007786;29;1839;-45
2022/02/20 00:14:31;;;;;;;;;;;;;;;;;;1007603;29;892;-45
2022/02/20 00:15:02;;;;;;;;;;;;;;;;;;1007869;29;988;-46
2022/02/20 00:15:33;;;;;;;;;;;;;;;;;;1007688;29;867;-45
2022/02/20 00:16:04;;;;;;;;;;;;;;;;;;1007894;29;919;-45
2022/02/20 00:16:35;;;;;;;;;;;;;;;;;;1007817;29;1085;-42
2022/02/20 00:17:05;;;;;;;;;;;;;;;;;;1007733;29;916;-45
2022/02/20 00:17:36;;;;;;;;;;;;;;;;;;1007782;29;1037;-45
2022/02/20 00:18:06;;;;;;;;;;;;;;;;;;1007727;29;979;-44
2022/02/20 00:18:37;;;;;;;;;;;;;;;;;;1007703;29;1095;-45
2022/02/20 00:19:07;;;;;;;;;;;;;;;;;;1007693;29;884;-45
2022/02/20 00:19:37;;;;;;;;;;;;;;;;;;1007810;29;1914;-45
2022/02/20 00:20:08;;;;;;;;;;;;;;;;;;1007784;29;1026;-44
2022/02/20 00:20:38;;;;;;;;;;;;;;;;;;1007712;29;923;-45
2022/02/20 00:21:09;;;;;;;;;;;;;;;;;;1007745;29;958;-45
2022/02/20 00:21:39;;;;;;;;;;;;;;;;;;1007619;29;950;-45
2022/02/20 00:22:10;;;;;;;;;;;;;;;;;;1008053;29;805;-45
2022/02/20 00:22:40;;;;;;;;;;;;;;;;;;1007724;29;1028;-45
2022/02/20 00:23:12;;;;;;;;;;;;;;;;;;1007769;29;841;-46
2022/02/20 00:23:43;;;;;;;;;;;;;;;;;;1007710;29;811;-45
2022/02/20 00:24:14;;;;;;;;;;;;;;;;;;1007753;29;873;-45
2022/02/20 00:24:45;;;;;;;;;;;;;;;;;;1007867;29;935;-45
2022/02/20 00:25:15;;;;;;;;;;;;;;;;;;1007689;29;892;-45
2022/02/20 00:25:45;;;;;;;;;;;;;;;;;;1007667;29;779;-45
2022/02/20 00:26:17;;;;;;;;;;;;;;;;;;1007956;29;930;-45
2022/02/20 00:26:47;;;;;;;;;;;;;;;;;;1007560;29;860;-45
2022/02/20 00:27:18;;;;;;;;;;;;;;;;;;1007989;29;987;-45
2022/02/20 00:27:48;;;;;;;;;;;;;;;;;;1007356;29;990;-45
2022/02/20 00:28:18;;;;;;;;;;;;;;;;;;1007978;29;888;-45
2022/02/20 00:28:49;;;;;;;;;;;;;;;;;;1003333;29;1165;-46
2022/02/20 00:29:19;;;;;;;;;;;;;;;;;;1003527;29;845;-45
2022/02/20 00:29:50;;;;;;;;;;;;;;;;;;1003517;29;1056;-46
2022/02/20 00:30:20;;;;;;;;;;;;;;;;;;999646;29;920;-46
2022/02/20 00:30:51;;;;;;;;;;;;;;;;;;1003585;29;847;-46
2022/02/20 00:31:21;;;;;;;;;;;;;;;;;;1003739;29;1184;-46
2022/02/20 00:31:51;;;;;;;;;;;;;;;;;;1003237;29;1117;-45
2022/02/20 00:32:22;;;;;;;;;;;;;;;;;;1003840;29;938;-45
2022/02/20 00:32:53;;;;;;;;;;;;;;;;;;1003383;29;820;-46
2022/02/20 00:33:23;;;;;;;;;;;;;;;;;;1003668;29;1060;-45
2022/02/20 00:33:54;;;;;;;;;;;;;;;;;;999326;29;1267;-45
2022/02/20 00:34:24;;;;;;;;;;;;;;;;;;999823;29;940;-44
2022/02/20 00:34:54;;;;;;;;;;;;;;;;;;995927;29;925;-45
2022/02/20 00:35:26;;;;;;;;;;;;;;;;;;999858;29;955;-44
2022/02/20 00:35:57;;;;;;;;;;;;;;;;;;1003505;29;959;-44
2022/02/20 00:36:27;;;;;;;;;;;;;;;;;;1003699;29;947;-45
2022/02/20 00:36:57;;;;;;;;;;;;;;;;;;1003601;29;1295;-44
2022/02/20 00:37:28;;;;;;;;;;;;;;;;;;1003311;29;1158;-45
2022/02/20 00:37:59;;;;;;;;;;;;;;;;;;1003507;29;1496;-45
2022/02/20 00:38:29;;;;;;;;;;;;;;;;;;1003538;29;971;-45
2022/02/20 00:39:01;;;;;;;;;;;;;;;;;;1003760;29;844;-45
2022/02/20 00:39:31;;;;;;;;;;;;;;;;;;1003935;29;958;-44
2022/02/20 00:40:05;;;;;;;;;;;;;;;;;;1003837;29;1012;-45
2022/02/20 00:40:36;;;;;;;;;;;;;;;;;;1003865;29;916;-44
2022/02/20 00:41:07;;;;;;;;;;;;;;;;;;1003920;29;1171;-45
2022/02/20 00:41:37;;;;;;;;;;;;;;;;;;1003503;29;797;-45
2022/02/20 00:42:07;;;;;;;;;;;;;;;;;;1003486;29;966;-46
2022/02/20 00:42:38;;;;;;;;;;;;;;;;;;1003532;29;956;-45
2022/02/20 00:43:09;;;;;;;;;;;;;;;;;;1003522;29;804;-45
2022/02/20 00:43:39;;;;;;;;;;;;;;;;;;1004024;29;911;-44
2022/02/20 00:44:10;;;;;;;;;;;;;;;;;;1003665;29;829;-45
2022/02/20 00:44:40;;;;;;;;;;;;;;;;;;1004096;29;931;-45
2022/02/20 00:45:10;;;;;;;;;;;;;;;;;;1003515;29;1207;-45
2022/02/20 00:45:41;;;;;;;;;;;;;;;;;;1004035;29;793;-45
2022/02/20 00:46:11;;;;;;;;;;;;;;;;;;1003369;29;1272;-44
2022/02/20 00:46:42;;;;;;;;;;;;;;;;;;1003455;29;971;-44
2022/02/20 00:47:13;;;;;;;;;;;;;;;;;;1003580;29;991;-44
2022/02/20 00:47:44;;;;;;;;;;;;;;;;;;1003366;29;885;-44
2022/02/20 00:48:20;;;;;;;;;;;;;;;;;;1003875;29;1435;-44
2022/02/20 00:48:51;;;;;;;;;;;;;;;;;;1003756;29;905;-44
2022/02/20 00:49:21;;;;;;;;;;;;;;;;;;1003897;29;928;-45
2022/02/20 00:49:52;;;;;;;;;;;;;;;;;;1003903;29;986;-44
2022/02/20 00:50:23;;;;;;;;;;;;;;;;;;1003718;29;948;-45
2022/02/20 00:50:53;;;;;;;;;;;;;;;;;;1003871;29;877;-45
2022/02/20 00:51:24;;;;;;;;;;;;;;;;;;1003547;29;1413;-45
2022/02/20 00:51:54;;;;;;;;;;;;;;;;;;1003307;29;935;-45
2022/02/20 00:52:24;;;;;;;;;;;;;;;;;;1003730;29;906;-45
2022/02/20 00:52:55;;;;;;;;;;;;;;;;;;999324;29;1141;-44
2022/02/20 00:53:26;;;;;;;;;;;;;;;;;;1003689;29;954;-44
2022/02/20 00:53:56;;;;;;;;;;;;;;;;;;1003360;29;878;-44
2022/02/20 00:54:27;;;;;;;;;;;;;;;;;;1003450;29;948;-45
2022/02/20 00:54:57;;;;;;;;;;;;;;;;;;1003394;29;1246;-45
2022/02/20 00:55:28;;;;;;;;;;;;;;;;;;1003317;29;923;-45
2022/02/20 00:55:58;;;;;;;;;;;;;;;;;;999355;29;1013;-45
2022/02/20 00:56:28;;;;;;;;;;;;;;;;;;999645;29;966;-45
2022/02/20 00:56:59;;;;;;;;;;;;;;;;;;999537;29;820;-44
2022/02/20 00:57:30;;;;;;;;;;;;;;;;;;999702;29;867;-45
2022/02/20 00:58:02;;;;;;;;;;;;;;;;;;1003276;29;1376;-45
2022/02/20 00:58:34;;;;;;;;;;;;;;;;;;999667;29;1616;-45
2022/02/20 00:59:04;;;;;;;;;;;;;;;;;;999532;29;922;-45
2022/02/20 00:59:35;;;;;;;;;;;;;;;;;;1003434;29;1986;-45
2022/02/20 01:00:07;;;;;;;;;;;;;;;;;;999575;29;2306;-45
2022/02/20 01:00:37;;;;;;;;;;;;;;;;;;999744;29;805;-45
2022/02/20 01:01:08;;;;;;;;;;;;;;;;;;999673;29;1240;-45
2022/02/20 01:01:38;;;;;;;;;;;;;;;;;;999918;29;1142;-45
2022/02/20 01:02:08;;;;;;;;;;;;;;;;;;1003358;29;982;-45
2022/02/20 01:02:39;;;;;;;;;;;;;;;;;;999597;29;1368;-45
2022/02/20 01:03:11;;;;;;;;;;;;;;;;;;999753;29;766;-45
2022/02/20 01:03:41;;;;;;;;;;;;;;;;;;1003491;29;1309;-44
2022/02/20 01:04:11;;;;;;;;;;;;;;;;;;1003580;29;829;-45
2022/02/20 01:04:42;;;;;;;;;;;;;;;;;;1003542;29;1254;-45
2022/02/20 01:05:12;;;;;;;;;;;;;;;;;;1003033;29;998;-44
2022/02/20 01:05:44;;;;;;;;;;;;;;;;;;1003741;29;881;-44
2022/02/20 01:06:17;;;;;;;;;;;;;;;;;;1003851;29;1167;-45
2022/02/20 01:06:47;;;;;;;;;;;;;;;;;;1003372;29;1331;-45
2022/02/20 01:07:18;;;;;;;;;;;;;;;;;;1003562;29;950;-44
2022/02/20 01:07:48;;;;;;;;;;;;;;;;;;1003106;29;1424;-44
2022/02/20 01:08:19;;;;;;;;;;;;;;;;;;1003619;29;1034;-44
2022/02/20 01:08:50;;;;;;;;;;;;;;;;;;1003716;29;1091;-45
2022/02/20 01:09:21;;;;;;;;;;;;;;;;;;1003369;29;960;-44
2022/02/20 01:09:51;;;;;;;;;;;;;;;;;;1003399;29;1243;-44
2022/02/20 01:10:21;;;;;;;;;;;;;;;;;;1003292;29;824;-45
2022/02/20 01:10:52;;;;;;;;;;;;;;;;;;1003528;29;996;-45
2022/02/20 01:11:22;;;;;;;;;;;;;;;;;;999498;29;1289;-45
2022/02/20 01:11:53;;;;;;;;;;;;;;;;;;1003357;29;773;-45
2022/02/20 01:12:23;;;;;;;;;;;;;;;;;;1003472;29;1060;-45
2022/02/20 01:12:53;;;;;;;;;;;;;;;;;;1003303;29;979;-44
2022/02/20 01:13:24;;;;;;;;;;;;;;;;;;1003813;29;914;-45
2022/02/20 01:13:54;;;;;;;;;;;;;;;;;;1003159;29;1239;-45
2022/02/20 01:14:24;;;;;;;;;;;;;;;;;;1003437;29;979;-45
2022/02/20 01:14:55;;;;;;;;;;;;;;;;;;999568;29;1418;-45
2022/02/20 01:15:25;;;;;;;;;;;;;;;;;;999513;29;877;-45
2022/02/20 01:15:56;;;;;;;;;;;;;;;;;;1003508;29;973;-45
2022/02/20 01:16:26;;;;;;;;;;;;;;;;;;999524;29;1109;-45
2022/02/20 01:16:57;;;;;;;;;;;;;;;;;;1003371;29;925;-45
2022/02/20 01:17:27;;;;;;;;;;;;;;;;;;999379;29;1387;-45
2022/02/20 01:17:57;;;;;;;;;;;;;;;;;;999570;29;1546;-45
2022/02/20 01:18:28;;;;;;;;;;;;;;;;;;995911;29;1575;-45
2022/02/20 01:18:59;;;;;;;;;;;;;;;;;;995820;29;1248;-45
2022/02/20 01:19:31;;;;;;;;;;;;;;;;;;996154;29;962;-45
2022/02/20 01:20:03;;;;;;;;;;;;;;;;;;1003173;29;1972;-45
2022/02/20 01:20:33;;;;;;;;;;;;;;;;;;1003298;29;1282;-45
2022/02/20 01:21:04;;;;;;;;;;;;;;;;;;1003541;29;1014;-44
2022/02/20 01:21:34;;;;;;;;;;;;;;;;;;1003334;29;864;-45
2022/02/20 01:22:04;;;;;;;;;;;;;;;;;;1003416;29;1003;-45
2022/02/20 01:22:35;;;;;;;;;;;;;;;;;;1003622;29;879;-44
2022/02/20 01:23:05;;;;;;;;;;;;;;;;;;1003894;29;998;-44
2022/02/20 01:23:36;;;;;;;;;;;;;;;;;;1003617;29;844;-44
2022/02/20 01:24:06;;;;;;;;;;;;;;;;;;1003710;29;857;-45
2022/02/20 01:24:36;;;;;;;;;;;;;;;;;;1003670;29;900;-44
2022/02/20 01:25:07;;;;;;;;;;;;;;;;;;1003224;29;1259;-44
2022/02/20 01:25:38;;;;;;;;;;;;;;;;;;1003395;29;1492;-45
2022/02/20 01:26:09;;;;;;;;;;;;;;;;;;1003204;29;887;-45
2022/02/20 01:26:39;;;;;;;;;;;;;;;;;;999688;29;1177;-45
2022/02/20 01:27:09;;;;;;;;;;;;;;;;;;999515;29;1089;-45
2022/02/20 01:27:40;;;;;;;;;;;;;;;;;;999335;29;1458;-45
2022/02/20 01:28:10;;;;;;;;;;;;;;;;;;999619;29;1024;-45
2022/02/20 01:28:40;;;;;;;;;;;;;;;;;;1003062;29;1306;-44
2022/02/20 01:29:11;;;;;;;;;;;;;;;;;;1003532;29;765;-44
2022/02/20 01:29:42;;;;;;;;;;;;;;;;;;1003751;29;902;-44
2022/02/20 01:30:12;;;;;;;;;;;;;;;;;;1003614;29;964;-44
2022/02/20 01:30:43;;;;;;;;;;;;;;;;;;1003746;29;955;-45
2022/02/20 01:31:13;;;;;;;;;;;;;;;;;;1003502;29;896;-44
2022/02/20 01:31:43;;;;;;;;;;;;;;;;;;1003856;29;1079;-44
2022/02/20 01:32:14;;;;;;;;;;;;;;;;;;1003637;29;846;-44
2022/02/20 01:32:44;;;;;;;;;;;;;;;;;;1003611;29;927;-45
2022/02/20 01:33:19;;;;;;;;;;;;;;;;;;1003862;29;961;-44
2022/02/20 01:33:50;;;;;;;;;;;;;;;;;;1003453;29;872;-45
2022/02/20 01:34:20;;;;;;;;;;;;;;;;;;1003858;29;1009;-44
2022/02/20 01:34:51;;;;;;;;;;;;;;;;;;1003534;29;925;-44
2022/02/20 01:35:21;;;;;;;;;;;;;;;;;;1003694;29;872;-44
2022/02/20 01:35:53;;;;;;;;;;;;;;;;;;1003779;29;892;-45
2022/02/20 01:36:23;;;;;;;;;;;;;;;;;;1003689;29;825;-44
2022/02/20 01:36:57;;;;;;;;;;;;;;;;;;1003323;29;1302;-45
2022/02/20 01:37:28;;;;;;;;;;;;;;;;;;1002907;29;1064;-45
2022/02/20 01:37:59;;;;;;;;;;;;;;;;;;999445;29;1134;-44
2022/02/20 01:38:32;;;;;;;;;;;;;;;;;;999561;29;1310;-45
2022/02/20 01:39:03;;;;;;;;;;;;;;;;;;999403;29;1333;-44
2022/02/20 01:39:33;;;;;;;;;;;;;;;;;;999836;29;1018;-44
2022/02/20 01:40:11;;;;;;;;;;;;;;;;;;999466;29;1426;-44
2022/02/20 01:40:42;;;;;;;;;;;;;;;;;;1000364;29;770;-44
2022/02/20 01:41:16;;;;;;;;;;;;;;;;;;1003344;29;948;-44
2022/02/20 01:41:49;;;;;;;;;;;;;;;;;;999971;29;1571;-44
2022/02/20 01:42:19;;;;;;;;;;;;;;;;;;999499;29;1253;-45
2022/02/20 01:42:49;;;;;;;;;;;;;;;;;;1003288;29;1786;-45
2022/02/20 01:43:20;;;;;;;;;;;;;;;;;;1003131;29;986;-44
2022/02/20 01:43:52;;;;;;;;;;;;;;;;;;1003299;29;1236;-44
2022/02/20 01:44:23;;;;;;;;;;;;;;;;;;999714;29;1224;-44
2022/02/20 01:44:54;;;;;;;;;;;;;;;;;;999359;29;1153;-45
2022/02/20 01:45:24;;;;;;;;;;;;;;;;;;999531;29;892;-45
2022/02/20 01:45:55;;;;;;;;;;;;;;;;;;999283;29;1617;-44
2022/02/20 01:46:26;;;;;;;;;;;;;;;;;;1003401;29;945;-44
2022/02/20 01:47:04;;;;;;;;;;;;;;;;;;1003183;29;907;-44
2022/02/20 01:47:38;;;;;;;;;;;;;;;;;;1000692;29;873;-44
2022/02/20 01:48:08;;;;;;;;;;;;;;;;;;1002009;29;1363;-44
2022/02/20 01:48:40;;;;;;;;;;;;;;;;;;999287;29;1180;-44
2022/02/20 01:49:12;;;;;;;;;;;;;;;;;;999924;29;868;-44
2022/02/20 01:49:43;;;;;;;;;;;;;;;;;;1003308;29;1475;-44
2022/02/20 01:50:16;;;;;;;;;;;;;;;;;;1002548;29;1120;-45
2022/02/20 01:50:50;;;;;;;;;;;;;;;;;;995776;29;1343;-44
2022/02/20 01:51:22;;;;;;;;;;;;;;;;;;997713;29;956;-45
2022/02/20 01:51:54;;;;;;;;;;;;;;;;;;1003210;29;1310;-44
2022/02/20 01:52:24;;;;;;;;;;;;;;;;;;1003336;29;1116;-44
2022/02/20 01:53:00;;;;;;;;;;;;;;;;;;1003077;29;1584;-44
2022/02/20 01:53:31;;;;;;;;;;;;;;;;;;1003259;29;1045;-44
2022/02/20 01:54:01;;;;;;;;;;;;;;;;;;1000189;29;2000;-44
2022/02/20 01:54:32;;;;;;;;;;;;;;;;;;1003137;29;1433;-45
2022/02/20 01:55:07;;;;;;;;;;;;;;;;;;999566;29;1149;-44
2022/02/20 01:55:49;;;;;;;;;;;;;;;;;;999230;29;987;-46
2022/02/20 01:56:55;;;;;;;;;;;;;;;;;;1005932;29;1094;-45
2022/02/20 01:57:45;;;;;;;;;;;;;;;;;;1004213;29;1055;-44
2022/02/20 01:58:38;;;;;;;;;;;;;;;;;;1003380;29;930;-44
2022/02/20 01:59:29;;;;;;;;;;;;;;;;;;999380;29;1173;-44
2022/02/20 02:00:13;;;;;;;;;;;;;;;;;;999878;29;935;-43
2022/02/20 02:00:47;;;;;;;;;;;;;;;;;;1003158;29;745;-44
2022/02/20 02:01:36;;;;;;;;;;;;;;;;;;1003762;29;648;-45
2022/02/20 02:02:28;;;;;;;;;;;;;;;;;;1003075;29;1248;-45
2022/02/20 02:03:08;;;;;;;;;;;;;;;;;;1003287;29;1061;-45
2022/02/20 02:03:57;;;;;;;;;;;;;;;;;;999371;29;1530;-45
2022/02/20 02:04:47;;;;;;;;;;;;;;;;;;1003226;29;1163;-45
2022/02/20 02:05:18;;;;;;;;;;;;;;;;;;999334;29;1631;-45
2022/02/20 02:05:49;;;;;;;;;;;;;;;;;;999521;29;785;-44
2022/02/20 02:06:20;;;;;;;;;;;;;;;;;;1003149;29;1519;-45
2022/02/20 02:06:54;;;;;;;;;;;;;;;;;;1003097;29;1360;-45
2022/02/20 02:07:43;;;;;;;;;;;;;;;;;;1002426;29;1287;-46
2022/02/20 02:08:35;;;;;;;;;;;;;;;;;;985026;30;1241;-45
2022/02/20 02:09:21;;;;;;;;;;;;;;;;;;989820;29;1362;-45
2022/02/20 02:10:09;;;;;;;;;;;;;;;;;;1003313;29;816;-46
2022/02/20 02:10:53;;;;;;;;;;;;;;;;;;999611;29;1293;-45
2022/02/20 02:11:29;;;;;;;;;;;;;;;;;;1003015;29;1278;-45
2022/02/20 02:12:09;;;;;;;;;;;;;;;;;;1003204;29;971;-46
2022/02/20 02:13:00;;;;;;;;;;;;;;;;;;1002616;29;1785;-46
2022/02/20 02:13:35;;;;;;;;;;;;;;;;;;1003658;29;872;-46
2022/02/20 02:14:24;;;;;;;;;;;;;;;;;;1003292;29;1020;-45
2022/02/20 02:15:15;;;;;;;;;;;;;;;;;;1003118;29;1447;-46
2022/02/20 02:16:04;;;;;;;;;;;;;;;;;;1003496;29;965;-46
2022/02/20 02:16:47;;;;;;;;;;;;;;;;;;1003395;29;889;-46
2022/02/20 02:17:36;;;;;;;;;;;;;;;;;;1003617;29;1278;-46
2022/02/20 02:18:18;;;;;;;;;;;;;;;;;;1003047;29;1302;-46
2022/02/20 02:19:01;;;;;;;;;;;;;;;;;;1003055;29;792;-44
2022/02/20 02:19:37;;;;;;;;;;;;;;;;;;999385;29;1915;-45
2022/02/20 02:20:34;;;;;;;;;;;;;;;;;;987855;30;1175;-45
2022/02/20 02:21:29;;;;;;;;;;;;;;;;;;1005460;29;1358;-45
2022/02/20 02:22:27;;;;;;;;;;;;;;;;;;1003016;29;1304;-45
2022/02/20 02:23:19;;;;;;;;;;;;;;;;;;1003147;29;611;-45
2022/02/20 02:24:14;;;;;;;;;;;;;;;;;;1005105;29;1387;-45
2022/02/20 02:24:53;;;;;;;;;;;;;;;;;;1003176;29;1220;-45
2022/02/20 02:25:30;;;;;;;;;;;;;;;;;;999363;29;891;-45
2022/02/20 02:26:33;;;;;;;;;;;;;;;;;;989035;29;1157;-45
2022/02/20 02:27:20;;;;;;;;;;;;;;;;;;994312;29;1453;-46
2022/02/20 02:28:08;;;;;;;;;;;;;;;;;;999373;29;1359;-45
2022/02/20 02:28:47;;;;;;;;;;;;;;;;;;995285;29;1219;-44
2022/02/20 02:29:19;;;;;;;;;;;;;;;;;;999066;29;868;-45
2022/02/20 02:29:50;;;;;;;;;;;;;;;;;;995592;29;1295;-45
2022/02/20 02:30:20;;;;;;;;;;;;;;;;;;995731;29;932;-45
2022/02/20 02:30:50;;;;;;;;;;;;;;;;;;999351;29;974;-45
2022/02/20 02:31:21;;;;;;;;;;;;;;;;;;995446;29;1232;-45
2022/02/20 02:31:53;;;;;;;;;;;;;;;;;;999390;29;1460;-46
2022/02/20 02:32:24;;;;;;;;;;;;;;;;;;995438;29;1201;-45
2022/02/20 02:32:54;;;;;;;;;;;;;;;;;;995833;29;880;-44
2022/02/20 02:33:32;;;;;;;;;;;;;;;;;;999260;29;1216;-45
2022/02/20 02:34:02;;;;;;;;;;;;;;;;;;1002948;29;998;-44
2022/02/20 02:34:33;;;;;;;;;;;;;;;;;;999256;29;1299;-45
2022/02/20 02:35:05;;;;;;;;;;;;;;;;;;1002971;29;1177;-45
2022/02/20 02:35:35;;;;;;;;;;;;;;;;;;999177;29;1217;-44
2022/02/20 02:36:07;;;;;;;;;;;;;;;;;;999348;29;910;-45
2022/02/20 02:36:37;;;;;;;;;;;;;;;;;;999376;29;946;-45
2022/02/20 02:37:08;;;;;;;;;;;;;;;;;;1003154;29;1193;-45
2022/02/20 02:37:40;;;;;;;;;;;;;;;;;;1002680;29;1277;-45
2022/02/20 02:38:10;;;;;;;;;;;;;;;;;;1003038;29;1146;-45
2022/02/20 02:38:42;;;;;;;;;;;;;;;;;;999313;29;1284;-45
2022/02/20 02:39:15;;;;;;;;;;;;;;;;;;999236;29;1176;-46
2022/02/20 02:39:46;;;;;;;;;;;;;;;;;;995785;29;1978;-45
2022/02/20 02:40:16;;;;;;;;;;;;;;;;;;999933;29;901;-44
2022/02/20 02:40:47;;;;;;;;;;;;;;;;;;999018;29;1216;-45
2022/02/20 02:41:17;;;;;;;;;;;;;;;;;;999630;29;1077;-46
2022/02/20 02:41:56;;;;;;;;;;;;;;;;;;999065;29;1192;-45
2022/02/20 02:42:27;;;;;;;;;;;;;;;;;;999234;29;1632;-45
2022/02/20 02:42:58;;;;;;;;;;;;;;;;;;999249;29;1428;-44
2022/02/20 02:43:28;;;;;;;;;;;;;;;;;;995557;29;1201;-44
2022/02/20 02:44:00;;;;;;;;;;;;;;;;;;999174;29;923;-44
2022/02/20 02:44:31;;;;;;;;;;;;;;;;;;999223;29;1323;-45
2022/02/20 02:45:02;;;;;;;;;;;;;;;;;;999034;29;1196;-45
2022/02/20 02:45:32;;;;;;;;;;;;;;;;;;995691;29;1291;-45
2022/02/20 02:46:08;;;;;;;;;;;;;;;;;;999739;29;1240;-45
2022/02/20 02:46:39;;;;;;;;;;;;;;;;;;1003138;29;793;-45
2022/02/20 02:47:12;;;;;;;;;;;;;;;;;;999236;29;1231;-45
2022/02/20 02:47:45;;;;;;;;;;;;;;;;;;995716;29;1209;-44
2022/02/20 02:48:17;;;;;;;;;;;;;;;;;;999285;29;1010;-44
2022/02/20 02:48:48;;;;;;;;;;;;;;;;;;999652;29;1138;-44
2022/02/20 02:49:20;;;;;;;;;;;;;;;;;;1000188;29;1415;-44
2022/02/20 02:49:51;;;;;;;;;;;;;;;;;;999176;29;872;-44
2022/02/20 02:50:21;;;;;;;;;;;;;;;;;;999061;29;916;-42
2022/02/20 02:50:55;;;;;;;;;;;;;;;;;;996013;29;1185;-44
2022/02/20 02:51:26;;;;;;;;;;;;;;;;;;1002859;29;1200;-44
2022/02/20 02:51:56;;;;;;;;;;;;;;;;;;1003140;29;813;-44
2022/02/20 02:52:27;;;;;;;;;;;;;;;;;;999195;29;1224;-44
2022/02/20 02:52:58;;;;;;;;;;;;;;;;;;999428;29;797;-44
2022/02/20 02:53:30;;;;;;;;;;;;;;;;;;1003156;29;1046;-44
2022/02/20 02:54:04;;;;;;;;;;;;;;;;;;1002900;29;973;-44
2022/02/20 02:54:35;;;;;;;;;;;;;;;;;;1002998;29;1192;-44
2022/02/20 02:55:07;;;;;;;;;;;;;;;;;;999104;29;1282;-44
2022/02/20 02:55:37;;;;;;;;;;;;;;;;;;999288;29;1134;-44
2022/02/20 02:56:08;;;;;;;;;;;;;;;;;;995762;29;982;-43
2022/02/20 02:56:39;;;;;;;;;;;;;;;;;;999098;29;880;-44
2022/02/20 02:57:09;;;;;;;;;;;;;;;;;;1003015;29;1164;-44
2022/02/20 02:57:40;;;;;;;;;;;;;;;;;;999123;29;1445;-44
2022/02/20 02:58:15;;;;;;;;;;;;;;;;;;999214;29;940;-45
2022/02/20 02:58:46;;;;;;;;;;;;;;;;;;996191;29;1319;-45
2022/02/20 02:59:19;;;;;;;;;;;;;;;;;;996276;29;1413;-45
2022/02/20 02:59:49;;;;;;;;;;;;;;;;;;999216;29;1978;-44
2022/02/20 03:00:21;;;;;;;;;;;;;;;;;;999153;29;1188;-45
2022/02/20 03:00:52;;;;;;;;;;;;;;;;;;999200;29;802;-44
2022/02/20 03:01:24;;;;;;;;;;;;;;;;;;999839;29;1172;-45
2022/02/20 03:01:58;;;;;;;;;;;;;;;;;;999125;29;1141;-44
2022/02/20 03:02:29;;;;;;;;;;;;;;;;;;995469;29;961;-44
2022/02/20 03:03:01;;;;;;;;;;;;;;;;;;992299;29;1162;-45
2022/02/20 03:03:32;;;;;;;;;;;;;;;;;;999031;29;1266;-44
2022/02/20 03:04:05;;;;;;;;;;;;;;;;;;996021;29;1228;-45
2022/02/20 03:04:37;;;;;;;;;;;;;;;;;;995520;29;2024;-44
2022/02/20 03:05:08;;;;;;;;;;;;;;;;;;998980;29;1754;-44
2022/02/20 03:05:40;;;;;;;;;;;;;;;;;;999727;29;1309;-45
2022/02/20 03:06:11;;;;;;;;;;;;;;;;;;999124;29;1258;-44
2022/02/20 03:06:43;;;;;;;;;;;;;;;;;;999203;29;1063;-44
2022/02/20 03:07:16;;;;;;;;;;;;;;;;;;999584;29;1358;-45
2022/02/20 03:07:47;;;;;;;;;;;;;;;;;;999023;29;1272;-44
2022/02/20 03:08:18;;;;;;;;;;;;;;;;;;999181;29;1011;-45
2022/02/20 03:08:49;;;;;;;;;;;;;;;;;;995710;29;1309;-44
2022/02/20 03:09:19;;;;;;;;;;;;;;;;;;999205;29;908;-44
2022/02/20 03:09:51;;;;;;;;;;;;;;;;;;999273;29;1344;-44
2022/02/20 03:10:21;;;;;;;;;;;;;;;;;;999285;29;829;-45
2022/02/20 03:10:52;;;;;;;;;;;;;;;;;;1003153;29;1343;-44
2022/02/20 03:11:23;;;;;;;;;;;;;;;;;;998937;29;1153;-44
2022/02/20 03:11:54;;;;;;;;;;;;;;;;;;999407;29;1453;-45
2022/02/20 03:12:29;;;;;;;;;;;;;;;;;;999121;29;1188;-45
2022/02/20 03:13:00;;;;;;;;;;;;;;;;;;999088;29;1232;-44
2022/02/20 03:13:31;;;;;;;;;;;;;;;;;;999905;29;1025;-45
2022/02/20 03:14:03;;;;;;;;;;;;;;;;;;998947;29;1275;-45
2022/02/20 03:14:35;;;;;;;;;;;;;;;;;;999637;29;1420;-44
2022/02/20 03:15:07;;;;;;;;;;;;;;;;;;1002968;29;810;-44
2022/02/20 03:15:37;;;;;;;;;;;;;;;;;;999563;29;1194;-44
2022/02/20 03:16:08;;;;;;;;;;;;;;;;;;999181;29;1273;-44
2022/02/20 03:16:38;;;;;;;;;;;;;;;;;;1002885;29;2439;-44
2022/02/20 03:17:10;;;;;;;;;;;;;;;;;;1002880;29;1483;-44
2022/02/20 03:17:41;;;;;;;;;;;;;;;;;;995253;29;1331;-44
2022/02/20 03:18:12;;;;;;;;;;;;;;;;;;999038;29;1196;-44
2022/02/20 03:18:43;;;;;;;;;;;;;;;;;;999202;29;998;-45
2022/02/20 03:19:19;;;;;;;;;;;;;;;;;;1000110;29;954;-44
2022/02/20 03:19:49;;;;;;;;;;;;;;;;;;1003022;29;1958;-45
2022/02/20 03:20:20;;;;;;;;;;;;;;;;;;1002986;29;1169;-44
2022/02/20 03:20:51;;;;;;;;;;;;;;;;;;1002889;29;1355;-44
2022/02/20 03:21:23;;;;;;;;;;;;;;;;;;999068;29;1169;-46
2022/02/20 03:21:55;;;;;;;;;;;;;;;;;;999104;29;1377;-44
2022/02/20 03:22:26;;;;;;;;;;;;;;;;;;999359;29;1101;-44
2022/02/20 03:22:56;;;;;;;;;;;;;;;;;;999368;29;1177;-45
2022/02/20 03:23:27;;;;;;;;;;;;;;;;;;998928;29;1265;-44
2022/02/20 03:24:02;;;;;;;;;;;;;;;;;;999226;29;1124;-44
2022/02/20 03:24:33;;;;;;;;;;;;;;;;;;999094;29;1181;-44
2022/02/20 03:25:04;;;;;;;;;;;;;;;;;;999816;29;1003;-44
2022/02/20 03:25:35;;;;;;;;;;;;;;;;;;999641;29;1320;-45
2022/02/20 03:26:12;;;;;;;;;;;;;;;;;;998979;29;1519;-44
2022/02/20 03:26:43;;;;;;;;;;;;;;;;;;999192;29;1006;-44
2022/02/20 03:27:14;;;;;;;;;;;;;;;;;;1000198;29;1045;-45
2022/02/20 03:27:46;;;;;;;;;;;;;;;;;;999143;29;1181;-45
2022/02/20 03:28:24;;;;;;;;;;;;;;;;;;999068;29;1231;-44
2022/02/20 03:29:03;;;;;;;;;;;;;;;;;;999115;29;1476;-44
2022/02/20 03:29:35;;;;;;;;;;;;;;;;;;999189;29;1594;-44
2022/02/20 03:30:06;;;;;;;;;;;;;;;;;;995389;29;1461;-44
2022/02/20 03:30:39;;;;;;;;;;;;;;;;;;996049;29;1351;-44
2022/02/20 03:31:13;;;;;;;;;;;;;;;;;;995344;29;1235;-45
2022/02/20 03:31:45;;;;;;;;;;;;;;;;;;995352;29;1453;-45
2022/02/20 03:32:16;;;;;;;;;;;;;;;;;;995915;29;989;-45
2022/02/20 03:32:46;;;;;;;;;;;;;;;;;;999439;29;1298;-45
2022/02/20 03:33:19;;;;;;;;;;;;;;;;;;999037;29;1242;-45
2022/02/20 03:33:51;;;;;;;;;;;;;;;;;;995329;29;1173;-45
2022/02/20 03:34:22;;;;;;;;;;;;;;;;;;992044;29;1508;-45
2022/02/20 03:34:57;;;;;;;;;;;;;;;;;;992527;29;1361;-44
2022/02/20 03:35:27;;;;;;;;;;;;;;;;;;995878;29;992;-45
2022/02/20 03:35:59;;;;;;;;;;;;;;;;;;1000013;29;970;-45
2022/02/20 03:36:32;;;;;;;;;;;;;;;;;;998998;29;1515;-46
2022/02/20 03:37:05;;;;;;;;;;;;;;;;;;1000045;29;1364;-45
2022/02/20 03:37:41;;;;;;;;;;;;;;;;;;998908;29;1170;-46
2022/02/20 03:38:12;;;;;;;;;;;;;;;;;;995274;29;1196;-45
2022/02/20 03:38:43;;;;;;;;;;;;;;;;;;999090;29;1291;-45
2022/02/20 03:39:20;;;;;;;;;;;;;;;;;;1002018;29;1207;-45
2022/02/20 03:39:51;;;;;;;;;;;;;;;;;;999125;29;2004;-45
2022/02/20 03:40:21;;;;;;;;;;;;;;;;;;1000181;29;924;-45
2022/02/20 03:40:53;;;;;;;;;;;;;;;;;;1002940;29;746;-45
2022/02/20 03:41:30;;;;;;;;;;;;;;;;;;1003026;29;1622;-45
2022/02/20 03:42:02;;;;;;;;;;;;;;;;;;1002929;29;1498;-45
2022/02/20 03:43:11;;;;;;;;;;;;;;;;;;991482;29;774;-45
2022/02/20 03:43:45;;;;;;;;;;;;;;;;;;1000085;29;1244;-45
2022/02/20 03:44:16;;;;;;;;;;;;;;;;;;999073;29;1349;-45
2022/02/20 03:45:05;;;;;;;;;;;;;;;;;;998932;29;1129;-45
2022/02/20 03:45:37;;;;;;;;;;;;;;;;;;1001843;29;1260;-46
2022/02/20 03:46:08;;;;;;;;;;;;;;;;;;1002942;29;911;-46
2022/02/20 03:46:56;;;;;;;;;;;;;;;;;;999940;29;1302;-46
2022/02/20 03:47:27;;;;;;;;;;;;;;;;;;1001392;29;1271;-45
2022/02/20 03:48:00;;;;;;;;;;;;;;;;;;999028;29;1033;-45
2022/02/20 03:48:31;;;;;;;;;;;;;;;;;;999517;29;1122;-45
2022/02/20 03:49:30;;;;;;;;;;;;;;;;;;991306;29;841;-45
2022/02/20 03:50:06;;;;;;;;;;;;;;;;;;999522;29;1068;-44
2022/02/20 03:50:50;;;;;;;;;;;;;;;;;;999294;29;1282;-46
2022/02/20 03:51:21;;;;;;;;;;;;;;;;;;995090;29;1255;-45
2022/02/20 03:51:51;;;;;;;;;;;;;;;;;;999283;29;1584;-45
2022/02/20 03:52:25;;;;;;;;;;;;;;;;;;995885;29;1044;-45
2022/02/20 03:52:57;;;;;;;;;;;;;;;;;;995995;29;1084;-45